Time;durP1;ratioP1;P1;durP2;ratioP2;P2;SDS_P1;SDS_P2;PMS_P1;PMS_P2;Temp;Humidity;BMP_temperature;BMP_pressure;BME280_temperature;BME280_humidity;BME280_pressure;Samples;Min_cycle;Max_cycle;Signal;HPM_P1;HPM_P2
2021/12/18 00:01:04;;;;;;;18.27;6.97;;;10.00;99.90;;;;;;5090668;28;20073;-75
2021/12/18 00:03:29;;;;;;;20.05;7.20;;;10.00;99.90;;;;;;5089504;28;20028;-76
2021/12/18 00:05:55;;;;;;;20.13;7.90;;;10.00;99.90;;;;;;5089759;28;20074;-75
2021/12/18 00:08:21;;;;;;;17.55;6.70;;;10.00;99.90;;;;;;5089529;28;20436;-74
2021/12/18 00:10:47;;;;;;;16.58;6.78;;;10.00;99.90;;;;;;5089722;28;20468;-74
2021/12/18 00:13:13;;;;;;;18.48;7.70;;;10.00;99.90;;;;;;5072663;28;20063;-74
2021/12/18 00:15:39;;;;;;;20.52;7.35;;;10.00;99.90;;;;;;5090468;28;20028;-75
2021/12/18 00:18:06;;;;;;;19.45;7.60;;;10.00;99.90;;;;;;5089546;28;20024;-75
2021/12/18 00:20:32;;;;;;;19.33;7.05;;;10.00;99.90;;;;;;5075566;28;20336;-75
2021/12/18 00:22:58;;;;;;;22.42;8.07;;;10.00;99.90;;;;;;5089006;28;20024;-74
2021/12/18 00:25:24;;;;;;;22.80;8.75;;;10.00;99.90;;;;;;5093991;28;20032;-74
2021/12/18 00:27:50;;;;;;;22.70;7.85;;;10.00;99.90;;;;;;5088249;28;20032;-75
2021/12/18 00:30:17;;;;;;;21.23;8.30;;;10.00;99.90;;;;;;5088388;28;20051;-75
2021/12/18 00:32:42;;;;;;;21.90;8.38;;;10.00;99.90;;;;;;5092964;28;20384;-76
2021/12/18 00:35:08;;;;;;;21.70;8.68;;;10.00;99.90;;;;;;5097230;28;20031;-74
2021/12/18 00:37:34;;;;;;;19.10;7.20;;;10.00;99.90;;;;;;5093888;28;20418;-74
2021/12/18 00:40:01;;;;;;;23.27;9.07;;;10.00;99.90;;;;;;5075637;28;20111;-74
2021/12/18 00:45:04;;;;;;;23.25;8.73;;;9.90;99.90;;;;;;5094214;28;20020;-75
2021/12/18 00:47:31;;;;;;;23.00;8.85;;;9.90;99.90;;;;;;5092102;28;20760;-76
2021/12/18 00:49:56;;;;;;;23.92;9.90;;;9.90;99.90;;;;;;5079557;28;20024;-75
2021/12/18 00:52:23;;;;;;;23.98;9.77;;;9.90;99.90;;;;;;5092149;28;20450;-76
2021/12/18 00:54:50;;;;;;;27.60;9.27;;;9.90;99.90;;;;;;5092643;28;20028;-76
2021/12/18 00:57:16;;;;;;;23.60;9.45;;;9.90;99.90;;;;;;5092251;28;20062;-75
2021/12/18 00:59:42;;;;;;;19.73;8.02;;;10.00;99.90;;;;;;5093068;28;20086;-75
2021/12/18 01:02:07;;;;;;;24.58;8.63;;;10.00;99.90;;;;;;5092720;28;20039;-75
2021/12/18 01:04:33;;;;;;;26.08;9.75;;;10.00;99.90;;;;;;5093444;28;20048;-74
2021/12/18 01:06:59;;;;;;;21.48;8.25;;;9.90;99.90;;;;;;5094887;28;20349;-73
2021/12/18 01:09:44;;;;;;;24.45;8.80;;;10.00;99.90;;;;;;5092536;28;20117;-74
2021/12/18 01:12:10;;;;;;;23.38;7.63;;;9.90;99.90;;;;;;5063647;28;20489;-74
2021/12/18 01:24:57;;;;;;;22.77;7.35;;;9.90;99.90;;;;;;5091194;28;20042;-74
2021/12/18 01:27:23;;;;;;;23.63;7.10;;;9.90;99.90;;;;;;5083192;28;20459;-75
2021/12/18 01:29:49;;;;;;;16.55;5.78;;;9.90;99.90;;;;;;5093899;28;20059;-74
2021/12/18 01:32:14;;;;;;;19.27;6.38;;;9.90;99.90;;;;;;5091559;28;20115;-74
2021/12/18 01:34:40;;;;;;;24.52;7.22;;;9.90;99.90;;;;;;5090999;28;20441;-76
2021/12/18 01:37:06;;;;;;;19.20;6.63;;;9.90;99.90;;;;;;5093003;28;20085;-74
2021/12/18 01:39:32;;;;;;;20.23;6.80;;;9.90;99.90;;;;;;5082453;28;20032;-75
2021/12/18 01:52:34;;;;;;;22.38;7.50;;;9.80;99.90;;;;;;5092810;28;20452;-74
2021/12/18 01:55:00;;;;;;;20.40;6.03;;;9.70;99.90;;;;;;5091576;28;20024;-76
2021/12/18 01:57:26;;;;;;;20.58;6.05;;;9.70;99.90;;;;;;5093909;28;20032;-75
2021/12/18 01:59:52;;;;;;;20.65;7.03;;;9.70;99.90;;;;;;5091214;28;20024;-74
2021/12/18 02:02:18;;;;;;;18.73;6.13;;;9.70;99.90;;;;;;5093949;28;20486;-73
2021/12/18 02:04:45;;;;;;;21.92;6.65;;;9.80;99.90;;;;;;5094100;28;20032;-76
2021/12/18 02:07:11;;;;;;;20.48;6.22;;;9.70;99.90;;;;;;5094123;28;20043;-75
2021/12/18 02:12:47;;;;;;;18.33;5.25;;;9.60;99.90;;;;;;5062748;28;20051;-74
2021/12/18 02:20:50;;;;;;;21.85;6.60;;;9.60;99.90;;;;;;5092875;28;20038;-75
2021/12/18 02:23:16;;;;;;;21.08;6.95;;;9.60;99.90;;;;;;5085384;28;20384;-73
2021/12/18 02:25:45;;;;;;;41.75;9.50;;;9.60;99.90;;;;;;5092369;28;20028;-74
2021/12/18 02:28:20;;;;;;;24.55;7.28;;;9.60;99.90;;;;;;5072138;28;20040;-75
2021/12/18 02:30:48;;;;;;;23.23;6.22;;;9.60;99.90;;;;;;5090066;28;20467;-74
2021/12/18 02:33:14;;;;;;;23.90;7.35;;;9.60;99.90;;;;;;5092795;28;20059;-75
2021/12/18 02:35:46;;;;;;;23.20;7.72;;;9.60;99.90;;;;;;5091912;28;20078;-74
2021/12/18 02:38:20;;;;;;;;;;;9.60;99.90;;;;;;5093147;28;20024;-75
2021/12/18 02:43:31;;;;;;;25.40;6.63;;;9.50;99.90;;;;;;5091722;28;20032;-74
2021/12/18 02:45:59;;;;;;;20.58;5.32;;;9.50;99.90;;;;;;5092962;28;20040;-73
2021/12/18 02:48:29;;;;;;;28.25;6.30;;;9.50;99.90;;;;;;5092559;28;20039;-75
2021/12/18 02:50:56;;;;;;;15.90;4.70;;;9.50;99.90;;;;;;5087579;28;20042;-74
2021/12/18 02:53:22;;;;;;;16.40;4.75;;;9.50;99.90;;;;;;5085581;28;20039;-75
2021/12/18 02:55:57;;;;;;;12.52;4.28;;;9.40;99.90;;;;;;5069412;28;20028;-74
2021/12/18 02:58:24;;;;;;;14.27;4.38;;;9.40;99.90;;;;;;5092877;28;20024;-75
2021/12/18 03:00:50;;;;;;;13.57;4.35;;;9.30;99.90;;;;;;5088875;28;20104;-73
2021/12/18 03:03:17;;;;;;;17.95;4.22;;;9.30;99.90;;;;;;5092558;28;20084;-73
2021/12/18 03:05:58;;;;;;;20.63;4.78;;;9.30;99.90;;;;;;5092878;28;20127;-73
2021/12/18 03:08:37;;;;;;;17.95;4.57;;;9.20;99.90;;;;;;5090824;28;20036;-74
2021/12/18 03:24:36;;;;;;;19.33;4.85;;;9.20;99.90;;;;;;5095435;28;20039;-74
2021/12/18 03:27:01;;;;;;;21.55;4.82;;;9.20;99.90;;;;;;5110255;28;20024;-75
2021/12/18 03:29:27;;;;;;;19.70;3.67;;;9.10;99.90;;;;;;5103177;28;20135;-73
2021/12/18 03:31:53;;;;;;;22.42;3.80;;;9.10;99.90;;;;;;5076095;28;20077;-73
2021/12/18 03:34:18;;;;;;;14.77;2.30;;;9.00;99.90;;;;;;5107816;28;20031;-75
2021/12/18 03:36:44;;;;;;;18.27;3.30;;;9.00;99.90;;;;;;5098244;28;20028;-74
2021/12/18 03:39:10;;;;;;;19.95;3.83;;;8.90;99.90;;;;;;5092975;28;20020;-74
2021/12/18 03:41:36;;;;;;;13.25;2.80;;;8.90;99.90;;;;;;5099793;28;20523;-74
2021/12/18 03:44:02;;;;;;;14.32;3.10;;;8.90;99.90;;;;;;5111111;28;20059;-74
2021/12/18 03:46:27;;;;;;;13.43;2.95;;;8.80;99.90;;;;;;5095085;28;20027;-73
2021/12/18 03:48:53;;;;;;;11.63;3.08;;;8.90;99.90;;;;;;5100567;28;20039;-74
2021/12/18 03:51:18;;;;;;;9.30;2.75;;;8.80;99.90;;;;;;5092718;28;20031;-73
2021/12/18 03:53:44;;;;;;;14.20;2.30;;;8.90;99.90;;;;;;5106963;28;20372;-73
2021/12/18 03:56:10;;;;;;;7.25;2.50;;;8.90;99.90;;;;;;5099009;28;20443;-77
2021/12/18 03:58:35;;;;;;;17.10;3.08;;;8.90;99.90;;;;;;5091757;28;20077;-73
2021/12/18 04:01:01;;;;;;;12.40;2.10;;;8.80;99.90;;;;;;5108346;28;20084;-76
2021/12/18 04:03:27;;;;;;;14.77;2.05;;;8.80;99.90;;;;;;5112657;28;20099;-77
2021/12/18 04:05:52;;;;;;;8.63;2.38;;;8.70;99.90;;;;;;5085216;28;20115;-76
2021/12/18 04:08:18;;;;;;;25.85;2.47;;;8.70;99.90;;;;;;5105473;28;20132;-76
2021/12/18 04:10:44;;;;;;;12.18;2.13;;;8.60;99.90;;;;;;5116485;28;20032;-75
2021/12/18 04:13:10;;;;;;;10.40;2.35;;;8.60;99.90;;;;;;5116396;28;20022;-76
2021/12/18 04:15:37;;;;;;;8.65;2.22;;;8.50;99.90;;;;;;5115237;28;20066;-77
2021/12/18 04:18:03;;;;;;;5.53;1.52;;;8.50;99.90;;;;;;5109861;28;20472;-75
2021/12/18 04:20:29;;;;;;;3.92;1.33;;;8.50;99.90;;;;;;5097797;28;20016;-75
2021/12/18 04:22:55;;;;;;;13.57;2.25;;;8.50;99.90;;;;;;5113275;28;20034;-76
2021/12/18 04:25:20;;;;;;;13.25;1.70;;;8.50;99.90;;;;;;5078931;28;20483;-76
2021/12/18 04:27:46;;;;;;;9.13;1.73;;;8.50;99.90;;;;;;5115952;28;20031;-75
2021/12/18 04:30:13;;;;;;;12.60;2.13;;;8.50;99.90;;;;;;5116808;28;20100;-77
2021/12/18 04:32:39;;;;;;;12.70;2.05;;;8.60;99.90;;;;;;5115958;28;20364;-76
2021/12/18 04:35:06;;;;;;;7.28;2.40;;;8.60;99.90;;;;;;5116465;28;20035;-73
2021/12/18 04:37:31;;;;;;;10.35;2.20;;;8.60;99.90;;;;;;5096795;28;20078;-74
2021/12/18 04:39:57;;;;;;;11.77;2.42;;;8.60;99.90;;;;;;5097147;28;20408;-73
2021/12/18 04:42:23;;;;;;;11.82;2.90;;;8.60;99.90;;;;;;5087641;28;20111;-74
2021/12/18 04:44:48;;;;;;;18.15;2.88;;;8.60;99.90;;;;;;5097948;28;20032;-75
2021/12/18 04:47:14;;;;;;;13.43;3.67;;;8.60;99.90;;;;;;5098743;28;20028;-74
2021/12/18 04:49:40;;;;;;;19.13;3.50;;;8.60;99.90;;;;;;5095934;28;20152;-74
2021/12/18 04:52:06;;;;;;;12.68;3.65;;;8.70;99.90;;;;;;5095681;28;20028;-75
2021/12/18 04:54:32;;;;;;;33.72;4.65;;;8.70;99.90;;;;;;5077403;28;20028;-75
2021/12/18 04:56:58;;;;;;;16.38;3.50;;;8.70;99.90;;;;;;5090660;28;20051;-74
2021/12/18 04:59:24;;;;;;;8.00;2.90;;;8.70;99.90;;;;;;5112490;28;20387;-73
2021/12/18 05:01:51;;;;;;;8.48;2.80;;;8.70;99.90;;;;;;5115850;28;20020;-75
2021/12/18 05:04:17;;;;;;;14.43;3.85;;;8.70;99.90;;;;;;5106231;28;20380;-74
2021/12/18 05:06:46;;;;;;;12.43;3.28;;;8.70;99.90;;;;;;5095017;28;20035;-74
2021/12/18 05:09:14;;;;;;;33.53;4.25;;;8.70;99.90;;;;;;5093898;28;20152;-74
2021/12/18 05:11:40;;;;;;;14.77;3.63;;;8.70;99.90;;;;;;5095395;28;20115;-73
2021/12/18 05:14:07;;;;;;;192.13;17.30;;;8.70;99.90;;;;;;5095307;28;20047;-74
2021/12/18 05:16:33;;;;;;;13.65;3.90;;;8.70;99.90;;;;;;5088630;28;20085;-74
2021/12/18 05:18:58;;;;;;;18.08;3.00;;;8.70;99.90;;;;;;5092497;28;20036;-75
2021/12/18 05:21:24;;;;;;;32.17;4.30;;;8.70;99.90;;;;;;5076856;28;20081;-74
2021/12/18 05:23:50;;;;;;;87.78;9.63;;;8.70;99.90;;;;;;5096872;28;20040;-75
2021/12/18 05:26:16;;;;;;;49.83;5.88;;;8.70;99.90;;;;;;5090039;28;20028;-74
2021/12/18 05:28:41;;;;;;;11.20;3.00;;;8.60;99.90;;;;;;5093971;28;20047;-74
2021/12/18 05:31:09;;;;;;;14.13;2.58;;;8.70;99.90;;;;;;5091438;28;20040;-72
2021/12/18 05:33:35;;;;;;;17.88;3.28;;;8.60;99.90;;;;;;5082428;28;20027;-76
2021/12/18 05:36:03;;;;;;;9.23;2.60;;;8.60;99.90;;;;;;5098707;28;20544;-75
2021/12/18 05:38:29;;;;;;;10.57;2.40;;;8.60;99.90;;;;;;5094702;28;20042;-77
2021/12/18 05:40:54;;;;;;;8.45;2.30;;;8.50;99.90;;;;;;5099467;28;20032;-76
2021/12/18 05:43:20;;;;;;;7.10;2.20;;;8.50;99.90;;;;;;5077642;28;20035;-76
2021/12/18 05:45:46;;;;;;;5.53;2.10;;;8.40;99.90;;;;;;5097029;28;20031;-76
2021/12/18 05:48:12;;;;;;;7.40;2.25;;;8.40;99.90;;;;;;5100133;28;20036;-76
2021/12/18 05:50:38;;;;;;;20.25;3.00;;;8.30;99.90;;;;;;5096513;28;20094;-76
2021/12/18 05:53:03;;;;;;;15.45;3.28;;;8.30;99.90;;;;;;5081731;28;20399;-74
2021/12/18 05:55:30;;;;;;;30.83;5.40;;;8.30;99.90;;;;;;5093780;28;20028;-74
2021/12/18 05:57:56;;;;;;;80.93;8.75;;;8.30;99.90;;;;;;5102030;28;20039;-75
2021/12/18 06:00:22;;;;;;;84.88;9.30;;;8.30;99.90;;;;;;5095415;28;20036;-75
2021/12/18 06:02:48;;;;;;;34.53;5.68;;;8.20;99.90;;;;;;5099237;28;20063;-74
2021/12/18 06:05:14;;;;;;;14.65;4.57;;;8.20;99.90;;;;;;5095092;28;20042;-75
2021/12/18 06:07:58;;;;;;;15.35;4.75;;;8.20;99.90;;;;;;5104298;28;20028;-74
2021/12/18 06:10:28;;;;;;;38.97;5.65;;;8.10;99.90;;;;;;5094396;28;20040;-75
2021/12/18 06:12:57;;;;;;;23.02;4.00;;;8.10;99.90;;;;;;5104194;28;20023;-75
2021/12/18 06:15:23;;;;;;;13.32;2.92;;;8.10;99.90;;;;;;5104450;28;20035;-75
2021/12/18 06:17:48;;;;;;;8.35;2.22;;;8.10;99.90;;;;;;5103383;28;20028;-75
2021/12/18 06:20:14;;;;;;;5.82;1.83;;;8.10;99.90;;;;;;5099980;28;20097;-74
2021/12/18 06:22:40;;;;;;;5.05;1.80;;;8.00;99.90;;;;;;5094144;28;20032;-74
2021/12/18 06:25:06;;;;;;;2.20;1.23;;;8.00;99.90;;;;;;5100814;28;20121;-76
2021/12/18 06:27:32;;;;;;;4.05;1.60;;;7.90;99.90;;;;;;5104785;28;20024;-75
2021/12/18 06:29:58;;;;;;;7.13;1.83;;;7.90;99.90;;;;;;5093812;28;20500;-74
2021/12/18 06:32:24;;;;;;;10.80;2.20;;;7.90;99.90;;;;;;5094894;28;20020;-74
2021/12/18 06:34:49;;;;;;;14.25;2.40;;;7.90;99.90;;;;;;5102170;28;20088;-74
2021/12/18 06:37:15;;;;;;;24.58;3.08;;;7.80;99.90;;;;;;5104098;28;20056;-75
2021/12/18 06:39:40;;;;;;;39.10;4.70;;;7.80;99.90;;;;;;5099990;28;20024;-76
2021/12/18 06:42:06;;;;;;;8.73;3.00;;;7.80;99.90;;;;;;5099271;28;20020;-76
2021/12/18 06:44:32;;;;;;;10.10;2.70;;;7.80;99.90;;;;;;5099936;28;20068;-74
2021/12/18 06:46:57;;;;;;;9.48;2.70;;;7.80;99.90;;;;;;5087994;28;20027;-75
2021/12/18 06:49:23;;;;;;;8.20;3.08;;;7.80;99.90;;;;;;5093117;28;20028;-75
2021/12/18 06:51:49;;;;;;;7.70;2.38;;;7.70;99.90;;;;;;5094016;28;20020;-74
2021/12/18 06:54:15;;;;;;;9.35;2.78;;;7.70;99.90;;;;;;5104220;28;20112;-75
2021/12/18 06:56:40;;;;;;;11.45;2.67;;;7.70;99.90;;;;;;5101628;28;20516;-75
2021/12/18 06:59:06;;;;;;;26.38;4.20;;;7.70;99.90;;;;;;5106324;28;20371;-75
2021/12/18 07:01:32;;;;;;;19.05;4.35;;;7.70;99.90;;;;;;5091795;28;20024;-75
2021/12/18 07:03:57;;;;;;;11.68;4.18;;;7.70;99.90;;;;;;5092896;28;20028;-75
2021/12/18 07:06:23;;;;;;;11.85;4.40;;;7.70;99.90;;;;;;5076013;28;20031;-75
2021/12/18 07:08:49;;;;;;;17.08;4.88;;;7.60;99.90;;;;;;5098314;28;20071;-74
2021/12/18 07:11:14;;;;;;;25.35;4.72;;;7.60;99.90;;;;;;5092713;28;20034;-76
2021/12/18 07:13:40;;;;;;;12.73;4.07;;;7.70;99.90;;;;;;5093412;28;20035;-76
2021/12/18 07:16:06;;;;;;;9.57;2.85;;;7.60;99.90;;;;;;5096896;28;20463;-75
2021/12/18 07:18:31;;;;;;;17.05;3.25;;;7.70;99.90;;;;;;5101434;28;20016;-77
2021/12/18 07:20:57;;;;;;;13.00;3.38;;;7.60;99.90;;;;;;5095060;28;20040;-73
2021/12/18 07:23:24;;;;;;;14.00;3.17;;;7.60;99.90;;;;;;5093067;28;20038;-74
2021/12/18 07:25:50;;;;;;;18.98;3.10;;;7.60;99.90;;;;;;5099831;28;20024;-75
2021/12/18 07:28:15;;;;;;;6.82;2.55;;;7.50;99.90;;;;;;5092640;28;20186;-73
2021/12/18 07:30:41;;;;;;;13.32;2.75;;;7.50;99.90;;;;;;5092550;28;20048;-77
2021/12/18 07:33:10;;;;;;;8.80;3.00;;;7.40;99.90;;;;;;5093244;28;20380;-76
2021/12/18 07:35:37;;;;;;;18.27;3.30;;;7.40;99.90;;;;;;5107007;28;20053;-74
2021/12/18 07:38:03;;;;;;;8.95;2.67;;;7.40;99.90;;;;;;5105346;28;20032;-74
2021/12/18 07:40:29;;;;;;;9.57;2.67;;;7.40;99.90;;;;;;5097172;28;20375;-75
2021/12/18 07:42:54;;;;;;;9.98;2.88;;;7.30;99.90;;;;;;5097816;28;20036;-74
2021/12/18 07:45:21;;;;;;;7.13;3.17;;;7.30;99.90;;;;;;5096373;28;20060;-74
2021/12/18 07:47:46;;;;;;;8.32;3.40;;;7.30;99.90;;;;;;5100763;28;20520;-73
2021/12/18 07:50:18;;;;;;;11.70;3.08;;;7.30;99.90;;;;;;5115120;28;20047;-74
2021/12/18 07:52:48;;;;;;;13.68;2.65;;;7.30;99.90;;;;;;5093797;28;20024;-76
2021/12/18 07:55:15;;;;;;;26.27;4.63;;;7.30;99.90;;;;;;5105512;28;20387;-75
2021/12/18 07:57:43;;;;;;;18.20;3.85;;;7.30;99.90;;;;;;5111425;28;20532;-75
2021/12/18 08:00:12;;;;;;;13.38;3.15;;;7.30;99.90;;;;;;5096780;28;20032;-75
2021/12/18 08:02:38;;;;;;;16.77;3.30;;;7.40;99.90;;;;;;5102710;28;20055;-75
2021/12/18 08:05:05;;;;;;;17.50;3.67;;;7.40;99.90;;;;;;5096750;28;20095;-77
2021/12/18 08:07:30;;;;;;;14.02;3.35;;;7.40;99.90;;;;;;5111738;28;20016;-75
2021/12/18 08:09:56;;;;;;;16.40;3.42;;;7.40;99.90;;;;;;5113598;28;20096;-76
2021/12/18 08:12:22;;;;;;;17.13;3.05;;;7.40;99.90;;;;;;5110276;28;20027;-74
2021/12/18 08:14:47;;;;;;;11.43;3.50;;;7.40;99.90;;;;;;5116518;28;20100;-74
2021/12/18 08:17:13;;;;;;;21.92;3.30;;;7.40;99.90;;;;;;5115362;28;20031;-76
2021/12/18 08:19:39;;;;;;;34.80;5.20;;;7.40;99.90;;;;;;5098303;28;20097;-75
2021/12/18 08:22:05;;;;;;;16.00;3.42;;;7.50;99.90;;;;;;5116523;28;20023;-75
2021/12/18 08:24:30;;;;;;;12.88;2.67;;;7.50;99.90;;;;;;5115222;28;20024;-75
2021/12/18 08:26:56;;;;;;;29.75;2.97;;;7.50;99.90;;;;;;5102404;28;20032;-75
2021/12/18 08:29:22;;;;;;;312.50;27.90;;;7.60;99.90;;;;;;5094716;28;20056;-76
2021/12/18 08:31:47;;;;;;;8.00;1.70;;;7.60;99.90;;;;;;5101585;28;20034;-75
2021/12/18 08:34:13;;;;;;;9.18;1.85;;;7.60;99.90;;;;;;5083126;28;20032;-74
2021/12/18 08:36:39;;;;;;;11.27;2.50;;;7.60;99.90;;;;;;5077697;28;20361;-75
2021/12/18 08:39:05;;;;;;;13.07;2.28;;;7.60;99.90;;;;;;5096566;28;20543;-75
2021/12/18 08:41:32;;;;;;;11.68;2.50;;;7.60;99.90;;;;;;5099435;28;20111;-75
2021/12/18 08:43:57;;;;;;;12.45;3.00;;;7.60;99.90;;;;;;5083357;28;20460;-75
2021/12/18 08:46:23;;;;;;;12.35;2.90;;;7.60;99.90;;;;;;5101851;28;20085;-74
2021/12/18 08:48:49;;;;;;;9.07;2.30;;;7.50;99.90;;;;;;5097080;28;20122;-75
2021/12/18 08:51:14;;;;;;;43.55;5.70;;;7.50;99.90;;;;;;5096604;28;20024;-74
2021/12/18 08:53:40;;;;;;;38.03;3.15;;;7.50;99.90;;;;;;5109687;28;20482;-76
2021/12/18 08:56:06;;;;;;;14.88;3.35;;;7.50;99.90;;;;;;5098470;28;20035;-74
2021/12/18 08:58:32;;;;;;;12.05;3.50;;;7.50;99.90;;;;;;5096549;28;20107;-76
2021/12/18 09:00:58;;;;;;;209.18;17.33;;;7.50;99.90;;;;;;5107361;28;20035;-76
2021/12/18 09:03:24;;;;;;;10.85;2.53;;;7.60;99.90;;;;;;5093914;28;20134;-75
2021/12/18 09:05:49;;;;;;;23.95;4.03;;;7.70;99.90;;;;;;5098635;28;20431;-74
2021/12/18 09:08:15;;;;;;;14.65;2.80;;;7.70;99.90;;;;;;5098806;28;20023;-76
2021/12/18 09:10:41;;;;;;;55.97;6.82;;;7.70;99.90;;;;;;5095987;28;20034;-76
2021/12/18 09:13:07;;;;;;;17.98;2.92;;;7.80;99.90;;;;;;5095722;28;20035;-75
2021/12/18 09:15:32;;;;;;;12.18;3.03;;;7.80;99.90;;;;;;5095799;28;20020;-74
2021/12/18 09:17:58;;;;;;;13.25;2.90;;;7.90;99.90;;;;;;5092675;28;20035;-72
2021/12/18 09:20:23;;;;;;;12.60;3.08;;;7.90;99.90;;;;;;5094604;28;20047;-71
2021/12/18 09:22:50;;;;;;;22.77;3.67;;;7.90;99.90;;;;;;5075935;28;20080;-77
2021/12/18 09:25:15;;;;;;;19.15;3.60;;;7.90;99.90;;;;;;5094639;28;20016;-70
2021/12/18 09:27:42;;;;;;;19.35;3.30;;;7.90;99.90;;;;;;5094918;28;20016;-69
2021/12/18 09:30:11;;;;;;;12.38;3.15;;;8.00;99.90;;;;;;5094576;28;20527;-69
2021/12/18 09:32:37;;;;;;;38.67;5.45;;;8.00;99.90;;;;;;5095011;28;20020;-70
2021/12/18 09:35:04;;;;;;;29.00;3.38;;;8.10;99.90;;;;;;5095173;28;20497;-68
2021/12/18 09:37:29;;;;;;;11.93;4.05;;;8.10;99.90;;;;;;5094763;28;20460;-69
2021/12/18 09:39:55;;;;;;;9.18;2.50;;;8.20;99.90;;;;;;5094632;28;20024;-70
2021/12/18 09:42:22;;;;;;;16.15;2.75;;;8.20;99.90;;;;;;5094707;28;20063;-71
2021/12/18 09:44:51;;;;;;;29.80;4.00;;;8.20;99.90;;;;;;5094918;28;20028;-70
2021/12/18 09:47:19;;;;;;;25.75;3.50;;;8.10;99.90;;;;;;5094299;28;20093;-70
2021/12/18 09:49:45;;;;;;;31.98;4.47;;;8.10;99.90;;;;;;5094360;28;20492;-71
2021/12/18 09:52:11;;;;;;;22.20;2.90;;;8.10;99.90;;;;;;5094068;28;20028;-70
2021/12/18 09:54:37;;;;;;;15.07;3.42;;;8.10;99.90;;;;;;5094607;28;20034;-69
2021/12/18 09:57:03;;;;;;;22.83;3.50;;;8.00;99.90;;;;;;5094186;28;20028;-70
2021/12/18 09:59:29;;;;;;;14.63;3.20;;;8.00;99.90;;;;;;5076020;28;20424;-69
2021/12/18 10:01:55;;;;;;;4.70;1.77;;;8.00;99.90;;;;;;5093828;28;20024;-70
2021/12/18 10:04:38;;;;;;;9.70;2.70;;;8.00;99.90;;;;;;5093890;28;20077;-69
2021/12/18 10:07:20;;;;;;;9.45;2.45;;;8.00;99.90;;;;;;5078662;28;20069;-70
2021/12/18 10:09:47;;;;;;;12.48;3.95;;;8.10;99.90;;;;;;5093042;28;20395;-69
2021/12/18 10:12:21;;;;;;;14.30;4.10;;;8.10;99.90;;;;;;5090789;28;20123;-69
2021/12/18 10:14:59;;;;;;;14.77;4.10;;;8.20;99.90;;;;;;5092145;28;20028;-69
2021/12/18 10:17:30;;;;;;;17.35;3.88;;;8.20;99.90;;;;;;5094317;28;20463;-69
2021/12/18 10:20:22;;;;;;;19.73;4.30;;;8.20;99.90;;;;;;5101107;28;20031;-69
2021/12/18 10:22:52;;;;;;;18.23;4.97;;;8.20;99.90;;;;;;5097997;28;20058;-69
2021/12/18 10:25:24;;;;;;;38.08;6.30;;;8.20;99.90;;;;;;5075818;28;20031;-69
2021/12/18 10:28:04;;;;;;;58.05;9.82;;;8.20;99.90;;;;;;5094126;28;20071;-70
2021/12/18 10:30:30;;;;;;;112.07;11.52;;;8.30;99.90;;;;;;5094014;28;20050;-69
2021/12/18 10:33:09;;;;;;;137.93;14.85;;;8.30;99.90;;;;;;5078214;28;20411;-70
2021/12/18 10:35:35;;;;;;;20.17;5.43;;;8.40;99.90;;;;;;5094936;28;20125;-69
2021/12/18 10:38:01;;;;;;;15.05;5.05;;;8.50;99.90;;;;;;5091837;28;20028;-69
2021/12/18 10:40:26;;;;;;;16.23;3.83;;;8.50;99.90;;;;;;5091567;28;20027;-69
2021/12/18 10:42:53;;;;;;;15.80;4.10;;;8.60;99.90;;;;;;5094483;28;20036;-68
2021/12/18 10:45:25;;;;;;;18.38;4.35;;;8.60;99.90;;;;;;5075417;28;20410;-69
2021/12/18 10:48:00;;;;;;;18.65;4.72;;;8.70;99.90;;;;;;5091984;28;20055;-69
2021/12/18 10:50:32;;;;;;;19.55;4.28;;;8.70;99.90;;;;;;5091165;28;20035;-69
2021/12/18 10:52:59;;;;;;;21.73;5.43;;;8.70;99.90;;;;;;5091113;28;20031;-69
2021/12/18 10:55:46;;;;;;;22.98;6.65;;;8.70;99.90;;;;;;5090860;28;20062;-69
2021/12/18 10:58:32;;;;;;;32.53;8.07;;;8.80;99.90;;;;;;5091132;28;20421;-69
2021/12/18 11:01:01;;;;;;;28.65;7.07;;;8.70;99.90;;;;;;5092134;28;20035;-69
2021/12/18 11:03:31;;;;;;;24.92;6.47;;;8.80;99.90;;;;;;5091827;28;20356;-70
2021/12/18 11:06:16;;;;;;;26.02;6.15;;;8.80;99.90;;;;;;5086934;28;20027;-70
2021/12/18 11:09:05;;;;;;;77.43;9.77;;;8.80;99.90;;;;;;5088997;28;20047;-69
2021/12/18 11:14:23;;;;;;;23.48;5.93;;;8.90;99.90;;;;;;5091519;28;20096;-69
2021/12/18 11:16:54;;;;;;;65.95;9.05;;;9.00;99.90;;;;;;5087731;28;20020;-69
2021/12/18 11:19:25;;;;;;;23.95;6.15;;;9.10;99.90;;;;;;5091708;28;20012;-69
2021/12/18 11:21:57;;;;;;;22.17;4.28;;;9.10;99.90;;;;;;5080651;28;20388;-69
2021/12/18 11:24:35;;;;;;;13.35;3.55;;;9.20;99.90;;;;;;5085408;28;20024;-69
2021/12/18 11:27:19;;;;;;;16.58;3.67;;;9.20;99.90;;;;;;5091870;28;20020;-69
2021/12/18 11:29:51;;;;;;;20.80;2.97;;;9.20;99.90;;;;;;5087868;28;20373;-69
2021/12/18 11:32:18;;;;;;;;;;;9.20;99.90;;;;;;5090854;28;20395;-70
2021/12/18 11:34:46;;;;;;;19.67;2.88;;;9.20;99.90;;;;;;5091391;28;19916;-69
2021/12/18 11:37:15;;;;;;;101.20;9.65;;;9.10;99.90;;;;;;5090957;28;20024;-69
2021/12/18 11:39:50;;;;;;;23.17;3.40;;;9.10;99.90;;;;;;5091455;28;20028;-69
2021/12/18 11:42:17;;;;;;;13.52;3.65;;;9.10;99.90;;;;;;5091782;28;20020;-69
2021/12/18 11:44:59;;;;;;;98.13;9.85;;;9.10;99.90;;;;;;5089168;28;20036;-70
2021/12/18 11:47:33;;;;;;;20.17;4.20;;;9.20;99.90;;;;;;5090719;28;20105;-70
2021/12/18 11:50:21;;;;;;;17.70;3.55;;;9.30;99.90;;;;;;5090173;28;20080;-69
2021/12/18 11:53:02;;;;;;;28.42;4.13;;;9.30;99.90;;;;;;5091513;28;20392;-69
2021/12/18 11:55:53;;;;;;;17.23;3.50;;;9.40;99.90;;;;;;5089640;28;20070;-68
2021/12/18 11:58:21;;;;;;;15.65;3.70;;;9.40;99.90;;;;;;5070777;28;20260;-68
2021/12/18 12:00:59;;;;;;;19.48;3.30;;;9.50;99.90;;;;;;5092302;28;20052;-69
2021/12/18 12:03:32;;;;;;;23.52;4.10;;;9.50;99.90;;;;;;5093268;28;20127;-69
2021/12/18 12:06:02;;;;;;;17.65;3.78;;;9.50;99.90;;;;;;5091976;28;20111;-69
2021/12/18 12:08:38;;;;;;;39.08;4.30;;;9.60;99.90;;;;;;5091621;28;20047;-69
2021/12/18 12:11:23;;;;;;;15.05;2.92;;;9.60;99.90;;;;;;5092057;28;20038;-69
2021/12/18 12:13:56;;;;;;;15.75;3.50;;;9.70;99.90;;;;;;5089857;28;20113;-68
2021/12/18 12:16:42;;;;;;;12.10;3.00;;;9.80;99.90;;;;;;5091335;28;20066;-69
2021/12/18 12:19:08;;;;;;;4.78;2.20;;;9.80;99.90;;;;;;5074032;28;20044;-69
2021/12/18 12:21:54;;;;;;;7.43;2.45;;;9.80;99.90;;;;;;5091689;28;20036;-69
2021/12/18 12:24:26;;;;;;;93.65;9.25;;;9.80;99.90;;;;;;5090908;28;20131;-68
2021/12/18 12:26:53;;;;;;;11.88;3.17;;;9.80;99.90;;;;;;5089655;28;20369;-69
2021/12/18 12:29:20;;;;;;;6.20;2.33;;;9.80;99.90;;;;;;5095016;28;20551;-68
2021/12/18 12:32:00;;;;;;;6.05;2.40;;;9.80;99.90;;;;;;5089309;28;20043;-69
2021/12/18 12:34:31;;;;;;;5.10;2.15;;;9.90;99.90;;;;;;5087763;28;20034;-68
2021/12/18 12:37:17;;;;;;;14.02;2.42;;;9.90;99.90;;;;;;5089671;28;20035;-69
2021/12/18 12:39:56;;;;;;;5.28;1.90;;;9.90;99.90;;;;;;5093730;28;20476;-69
2021/12/18 12:42:22;;;;;;;6.38;2.10;;;9.90;99.90;;;;;;5095625;28;20028;-68
2021/12/18 12:45:00;;;;;;;8.23;2.30;;;10.00;99.90;;;;;;5094474;28;20181;-69
2021/12/18 12:47:28;;;;;;;4.10;2.30;;;10.00;99.90;;;;;;5095142;28;20107;-69
2021/12/18 12:49:57;;;;;;;6.53;2.90;;;10.10;99.90;;;;;;5095189;28;20137;-68
2021/12/18 12:52:25;;;;;;;9.30;2.67;;;10.10;99.90;;;;;;5091495;28;20023;-68
2021/12/18 12:55:00;;;;;;;6.55;2.97;;;10.10;99.90;;;;;;5094551;28;20473;-69
2021/12/18 12:57:27;;;;;;;5.72;2.45;;;10.10;99.90;;;;;;5094241;28;20134;-69
2021/12/18 13:00:00;;;;;;;8.82;3.03;;;10.10;99.90;;;;;;5095505;28;20157;-68
2021/12/18 13:02:28;;;;;;;12.15;3.45;;;10.10;99.90;;;;;;5093094;28;20388;-69
2021/12/18 13:05:11;;;;;;;9.32;3.33;;;10.10;99.90;;;;;;5092403;28;20111;-69
2021/12/18 13:07:48;;;;;;;9.27;2.70;;;10.10;99.90;;;;;;5092729;28;20023;-68
2021/12/18 13:10:25;;;;;;;8.52;2.65;;;10.10;99.90;;;;;;5094691;28;20043;-69
2021/12/18 13:12:52;;;;;;;5.20;2.55;;;10.10;99.90;;;;;;5094350;28;20040;-68
2021/12/18 13:15:18;;;;;;;7.28;2.72;;;10.10;99.90;;;;;;5093606;28;20032;-68
2021/12/18 13:17:44;;;;;;;4.80;2.10;;;10.10;99.90;;;;;;5075572;28;20395;-68
2021/12/18 13:20:10;;;;;;;6.90;2.63;;;10.10;99.90;;;;;;5093919;28;20055;-68
2021/12/18 13:22:36;;;;;;;5.28;2.50;;;9.90;99.90;;;;;;5090041;28;20121;-69
2021/12/18 13:25:12;;;;;;;7.63;3.00;;;9.90;99.90;;;;;;5093648;28;20043;-69
2021/12/18 13:27:40;;;;;;;7.20;2.42;;;9.90;99.90;;;;;;5092363;28;20077;-68
2021/12/18 13:30:13;;;;;;;12.20;3.50;;;9.90;99.90;;;;;;5092491;28;20047;-69
2021/12/18 13:32:53;;;;;;;4.15;2.03;;;9.90;99.90;;;;;;5095151;28;20077;-68
2021/12/18 13:35:20;;;;;;;6.53;2.28;;;10.00;99.90;;;;;;5092963;28;20047;-68
2021/12/18 13:38:09;;;;;;;4.13;1.55;;;9.90;99.90;;;;;;5090949;28;20035;-69
2021/12/18 13:40:45;;;;;;;4.95;1.40;;;9.90;99.90;;;;;;5087911;28;20032;-68
2021/12/18 13:43:22;;;;;;;2.17;1.25;;;9.80;99.90;;;;;;5089593;28;20063;-69
2021/12/18 13:46:05;;;;;;;1.90;1.08;;;9.80;99.90;;;;;;5090483;28;20119;-69